ICT,Max TemperatureF,Mean TemperatureF,Min TemperatureF,Max Dew PointF,MeanDew PointF,Min DewpointF,Max Humidity, Mean Humidity, Min Humidity, Max Sea Level PressureIn, Mean Sea Level PressureIn, Min Sea Level PressureIn, Max VisibilityMiles, Mean VisibilityMiles, Min VisibilityMiles, Max Wind SpeedMPH, Mean Wind SpeedMPH, Max Gust SpeedMPH,PrecipitationIn, CloudCover, Events, WindDirDegrees
2012-10-1,89,82,76,79,73,70,94,78,58,29.95,29.89,29.83,6,6,5,8,2,,0.00,6,,313
2012-10-2,92,83,74,81,73,70,89,78,57,29.95,29.90,29.83,6,6,4,9,2,,0.00,6,Thunderstorm,207
2012-10-3,93,84,74,81,73,70,89,75,54,29.92,29.85,29.74,6,6,6,14,3,,0.00,6,Thunderstorm,210
2012-10-4,91,82,74,81,73,70,89,77,51,29.89,29.83,29.77,6,6,4,12,2,,0.04,6,Rain,180
2012-10-5,89,82,74,78,73,70,89,78,62,29.95,29.86,29.80,6,6,4,10,4,,0.01,6,Rain,209
2012-10-6,92,83,74,81,72,66,89,69,44,29.92,29.86,29.77,6,6,6,17,4,,0.00,6,,235
2012-10-7,87,80,74,79,72,68,89,81,63,29.86,29.83,29.77,6,6,3,14,2,,0.01,7,Rain,169
2012-10-8,91,82,74,81,73,68,89,75,50,29.86,29.81,29.74,6,6,5,14,3,,0.00,6,,226
2012-10-9,93,83,73,81,72,69,89,78,56,29.89,29.81,29.74,6,6,2,12,2,,0.39,6,Rain,117
2012-10-10,91,82,74,79,73,69,94,77,58,29.92,29.84,29.74,6,6,1,10,2,,0.00,6,,14
2012-10-11,92,82,73,81,73,70,94,76,52,29.89,29.84,29.74,6,6,3,9,2,,0.00,6,,38
2012-10-12,89,82,75,81,74,72,94,79,66,29.89,29.83,29.74,6,5,0,10,2,,0.00,6,Fog-Rain,43
2012-10-13,91,82,74,81,74,70,94,80,61,29.89,29.83,29.74,6,5,1,15,2,,0.00,6,,116
2012-10-14,91,82,73,81,73,68,89,80,60,29.92,29.85,29.74,6,5,4,7,1,,0.00,6,Rain,149
2012-10-15,88,82,75,81,75,71,89,86,68,30.09,29.88,29.80,6,4,2,8,1,,0.00,7,Rain,307
2012-10-16,87,80,73,79,74,72,94,88,74,29.95,29.88,29.80,6,4,0,7,2,,0.12,7,Fog-Rain,19
2012-10-17,91,82,72,84,74,70,94,86,62,29.92,29.85,29.74,6,5,0,12,1,,0.24,6,Fog-Rain,328
2012-10-18,82,78,75,79,74,72,94,87,75,29.95,29.86,29.80,6,5,1,8,1,,0.47,6,Rain-Thunderstorm,47
2012-10-19,84,78,73,77,73,70,94,86,71,29.89,29.85,29.80,6,5,3,12,2,,0.55,6,Rain,351
2012-10-20,86,80,74,81,74,72,89,84,71,29.89,29.84,29.77,6,5,3,13,3,,0.08,6,Rain,46
2012-10-21,87,81,75,81,75,72,94,85,75,29.89,29.84,29.77,6,6,4,9,3,,0.20,6,Rain,56
2012-10-22,82,78,75,77,74,71,100,86,78,29.92,29.84,29.80,6,5,0,7,1,,0.08,7,Fog-Rain,74
2012-10-23,82,78,73,77,73,70,89,86,76,29.89,29.81,29.74,6,6,2,10,3,,0.24,6,Rain,351
2012-10-24,87,80,74,81,75,72,94,86,74,29.83,29.77,29.71,6,5,0,7,1,,0.12,6,Fog-Rain-Thunderstorm,21
2012-10-25,89,82,75,81,75,72,94,82,68,29.83,29.77,29.68,6,6,4,12,2,,0.00,6,Rain,42
2012-10-26,91,82,74,81,74,70,89,78,58,29.81,29.76,29.68,6,6,5,10,2,,0.00,6,,15
2012-10-27,91,82,74,81,73,66,89,75,49,29.83,29.77,29.68,6,6,5,12,2,,0.00,5,,65
2012-10-28,91,82,73,79,73,70,89,75,58,29.83,29.79,29.71,6,6,5,10,2,,0.00,6,,42
2012-10-29,90,82,73,81,74,70,89,76,57,29.83,29.78,29.71,6,6,6,12,3,,0.00,6,,51
2012-10-30,92,84,75,79,73,70,89,75,58,29.83,29.78,29.71,6,6,6,9,2,,0.00,6,,27
2012-10-31,89,82,75,81,74,68,89,78,61,29.89,29.81,29.74,6,6,2,10,2,,0.87,6,Rain,36